createdAt,value
2018-01-21T00:01:13.379Z,4.00
2018-01-21T00:03:41.753Z,3.90
2018-01-21T00:06:10.097Z,3.90
2018-01-21T00:08:38.461Z,3.90
2018-01-21T00:11:07.748Z,3.80
2018-01-21T00:13:36.875Z,3.90
2018-01-21T00:16:05.223Z,3.90
2018-01-21T00:18:34.355Z,3.80
2018-01-21T00:21:02.720Z,3.80
2018-01-21T00:23:31.916Z,3.80
2018-01-21T00:26:00.266Z,3.80
2018-01-21T00:28:28.817Z,3.90
2018-01-21T00:30:57.183Z,3.90
2018-01-21T00:33:25.564Z,4.00
2018-01-21T00:35:53.926Z,4.00
2018-01-21T00:38:22.483Z,3.90
2018-01-21T00:40:50.841Z,3.90
2018-01-21T00:43:20.635Z,3.90
2018-01-21T00:45:48.989Z,3.90
2018-01-21T00:48:17.333Z,3.90
2018-01-21T00:50:45.699Z,3.90
2018-01-21T00:53:14.820Z,3.80
2018-01-21T00:55:43.175Z,3.80
2018-01-21T00:58:12.303Z,3.90
2018-01-21T01:00:40.325Z,3.90
2018-01-21T01:03:09.622Z,3.80
2018-01-21T01:05:38.014Z,3.80
2018-01-21T01:08:07.136Z,3.90
2018-01-21T01:10:35.479Z,3.90
2018-01-21T01:13:04.813Z,3.90
2018-01-21T01:15:33.182Z,3.80
2018-01-21T01:18:01.542Z,3.80
2018-01-21T01:20:30.665Z,3.80
2018-01-21T01:22:59.042Z,3.80
2018-01-21T01:25:27.406Z,3.80
2018-01-21T01:27:56.690Z,3.70
2018-01-21T01:30:25.820Z,3.70
2018-01-21T01:32:54.172Z,3.70
2018-01-21T01:35:23.493Z,3.60
2018-01-21T01:37:51.868Z,3.60
2018-01-21T01:40:20.244Z,3.60
2018-01-21T01:42:48.593Z,3.60
2018-01-21T01:45:17.777Z,3.60
2018-01-21T01:47:46.272Z,3.50
2018-01-21T01:50:15.403Z,3.60
2018-01-21T01:52:43.759Z,3.60
2018-01-21T01:55:12.101Z,3.50
2018-01-21T01:57:41.217Z,3.50
2018-01-21T02:00:10.344Z,3.60
2018-01-21T02:02:38.671Z,3.60
2018-01-21T02:05:07.050Z,3.60
2018-01-21T02:07:35.872Z,3.60
2018-01-21T02:10:03.554Z,3.60
2018-01-21T02:12:32.107Z,3.50
2018-01-21T02:15:00.511Z,3.50
2018-01-21T02:17:28.883Z,3.50
2018-01-21T02:19:57.234Z,3.40
2018-01-21T02:22:26.379Z,3.20
2018-01-21T02:24:59.336Z,3.20
2018-01-21T02:27:27.969Z,3.10
2018-01-21T02:29:56.330Z,3.10
2018-01-21T02:32:24.700Z,3.10
2018-01-21T02:34:52.721Z,3.10
2018-01-21T02:37:21.845Z,3.00
2018-01-21T02:39:50.198Z,3.00
2018-01-21T02:42:19.329Z,3.00
2018-01-21T02:44:47.705Z,3.00
2018-01-21T02:47:16.394Z,3.10
2018-01-21T02:49:44.759Z,3.10
2018-01-21T02:52:13.441Z,3.00
2018-01-21T02:54:41.790Z,3.10
2018-01-21T02:57:10.979Z,3.20
2018-01-21T02:59:40.116Z,3.20
2018-01-21T03:02:08.458Z,3.20
2018-01-21T03:04:37.593Z,3.20
2018-01-21T03:07:05.766Z,3.20
2018-01-21T03:09:34.119Z,3.20
2018-01-21T03:12:02.485Z,3.20
2018-01-21T03:14:31.620Z,3.20
2018-01-21T03:16:59.995Z,3.20
2018-01-21T03:19:28.437Z,3.20
2018-01-21T03:21:57.585Z,3.20
2018-01-21T03:24:25.923Z,3.20
2018-01-21T03:26:55.208Z,3.20
2018-01-21T03:29:24.319Z,3.20
2018-01-21T03:31:53.442Z,3.20
2018-01-21T03:34:21.797Z,3.20
2018-01-21T03:36:50.926Z,3.10
2018-01-21T03:39:19.274Z,3.10
2018-01-21T03:41:47.826Z,3.10
2018-01-21T03:44:16.197Z,3.10
2018-01-21T03:46:46.216Z,3.20
2018-01-21T03:49:14.712Z,3.20
2018-01-21T03:51:43.846Z,3.20
2018-01-21T03:54:12.025Z,3.20
2018-01-21T03:56:40.536Z,3.30
2018-01-21T03:59:08.874Z,3.30
2018-01-21T04:01:37.262Z,3.40
2018-01-21T04:04:05.828Z,3.40
2018-01-21T04:06:34.232Z,3.50
2018-01-21T04:09:02.604Z,3.50
2018-01-21T04:11:30.978Z,3.50
2018-01-21T04:13:59.317Z,3.50
2018-01-21T04:16:27.682Z,3.40
2018-01-21T04:18:56.804Z,3.30
2018-01-21T04:21:25.153Z,3.30
2018-01-21T04:23:54.280Z,3.30
2018-01-21T04:26:22.734Z,3.30
2018-01-21T04:28:52.258Z,3.30
2018-01-21T04:31:20.597Z,3.30
2018-01-21T04:33:48.974Z,3.20
2018-01-21T04:36:17.306Z,3.10
2018-01-21T04:38:45.641Z,3.10
2018-01-21T04:41:14.791Z,3.00
2018-01-21T04:43:43.138Z,3.00
2018-01-21T04:46:11.499Z,3.00
2018-01-21T04:48:40.958Z,2.90
2018-01-21T04:51:09.663Z,2.90
2018-01-21T04:53:38.015Z,2.90
2018-01-21T04:56:06.384Z,3.00
2018-01-21T04:58:34.754Z,3.10
2018-01-21T05:01:03.130Z,3.10
2018-01-21T05:03:31.490Z,3.10
2018-01-21T05:06:00.602Z,3.10
2018-01-21T05:08:28.966Z,3.10
2018-01-21T05:10:57.319Z,3.20
2018-01-21T05:13:26.495Z,3.10
2018-01-21T05:15:54.834Z,3.10
2018-01-21T05:18:23.466Z,3.10
2018-01-21T05:20:51.832Z,3.00
2018-01-21T05:23:20.190Z,2.90
2018-01-21T05:25:48.549Z,2.90
2018-01-21T05:28:16.910Z,2.80
2018-01-21T05:30:45.268Z,2.80
2018-01-21T05:33:14.721Z,2.70
2018-01-21T05:35:43.149Z,2.70
2018-01-21T05:38:11.529Z,2.80
2018-01-21T05:40:41.030Z,2.90
2018-01-21T05:43:10.143Z,3.00
2018-01-21T05:45:38.169Z,3.00
2018-01-21T05:48:06.635Z,3.00
2018-01-21T05:50:34.996Z,3.00
2018-01-21T05:53:03.359Z,2.90
2018-01-21T05:55:31.756Z,3.00
2018-01-21T05:58:00.112Z,3.00
2018-01-21T06:00:28.473Z,3.00
2018-01-21T06:02:57.661Z,3.10
2018-01-21T06:05:26.778Z,3.10
2018-01-21T06:07:55.148Z,3.00
2018-01-21T06:10:23.543Z,3.10
2018-01-21T06:12:51.907Z,3.10
2018-01-21T06:15:21.039Z,3.00
2018-01-21T06:17:49.387Z,3.00
2018-01-21T06:20:17.690Z,3.00
2018-01-21T06:22:46.065Z,3.10
2018-01-21T06:25:14.445Z,3.10
2018-01-21T06:27:42.953Z,3.00
2018-01-21T06:30:11.346Z,3.10
2018-01-21T06:32:39.729Z,3.10
2018-01-21T06:35:08.145Z,3.10
2018-01-21T06:37:36.539Z,3.10
2018-01-21T06:40:04.903Z,3.10
2018-01-21T06:42:33.257Z,3.10
2018-01-21T06:45:02.698Z,3.10
2018-01-21T06:47:31.065Z,3.10
2018-01-21T06:49:59.582Z,3.10
2018-01-21T06:52:28.046Z,3.10
2018-01-21T06:54:56.410Z,3.10
2018-01-21T06:57:25.348Z,3.10
2018-01-21T06:59:53.882Z,3.10
2018-01-21T07:02:21.972Z,3.10
2018-01-21T07:04:50.354Z,3.10
2018-01-21T07:07:18.416Z,3.20
2018-01-21T07:09:46.817Z,3.20
2018-01-21T07:12:15.173Z,3.20
2018-01-21T07:14:43.797Z,3.20
2018-01-21T07:17:12.929Z,3.10
2018-01-21T07:19:41.263Z,3.10
2018-01-21T07:22:09.628Z,3.20
2018-01-21T07:24:38.138Z,3.20
2018-01-21T07:27:06.594Z,3.20
2018-01-21T07:29:34.962Z,3.20
2018-01-21T07:32:04.251Z,3.20
2018-01-21T07:34:32.605Z,3.20
2018-01-21T07:37:00.977Z,3.20
2018-01-21T07:39:29.323Z,3.30
2018-01-21T07:41:58.477Z,3.20
2018-01-21T07:44:26.832Z,3.20
2018-01-21T07:46:55.283Z,3.20
2018-01-21T07:49:23.658Z,3.20
2018-01-21T07:51:52.782Z,3.20
2018-01-21T07:54:21.159Z,3.10
2018-01-21T07:56:49.701Z,3.20
2018-01-21T07:59:18.848Z,3.30
2018-01-21T08:01:47.350Z,3.20
2018-01-21T08:04:15.706Z,3.30
2018-01-21T08:06:44.477Z,3.30
2018-01-21T08:09:12.839Z,3.40
2018-01-21T08:11:41.399Z,3.40
2018-01-21T08:14:10.890Z,3.40
2018-01-21T08:16:39.261Z,3.40
2018-01-21T08:19:07.735Z,3.50
2018-01-21T08:21:36.496Z,3.50
2018-01-21T08:24:05.104Z,3.60
2018-01-21T08:26:33.588Z,3.60
2018-01-21T08:29:01.768Z,3.60
2018-01-21T08:31:30.165Z,3.60
2018-01-21T08:34:04.055Z,3.60
2018-01-21T08:36:37.919Z,3.60
2018-01-21T08:39:15.330Z,3.60
2018-01-21T08:41:47.337Z,3.70
2018-01-21T08:44:16.446Z,3.80
2018-01-21T08:46:44.815Z,3.80
2018-01-21T08:49:13.931Z,3.80
2018-01-21T08:51:42.096Z,3.80
2018-01-21T08:54:10.443Z,3.80
2018-01-21T08:56:38.813Z,3.90
2018-01-21T08:59:07.167Z,4.00
2018-01-21T09:01:36.118Z,4.00
2018-01-21T09:04:04.440Z,4.10
2018-01-21T09:06:32.794Z,4.10
2018-01-21T09:09:01.024Z,4.10
2018-01-21T09:11:30.197Z,4.20
2018-01-21T09:13:58.551Z,4.20
2018-01-21T09:16:26.928Z,4.10
2018-01-21T09:18:55.397Z,4.10
2018-01-21T09:21:23.784Z,4.00
2018-01-21T09:23:52.165Z,4.00
2018-01-21T09:26:20.539Z,4.10
2018-01-21T09:28:48.899Z,4.20
2018-01-21T09:31:17.265Z,4.40
2018-01-21T09:33:46.402Z,4.60
2018-01-21T09:36:14.774Z,4.50
2018-01-21T09:38:43.140Z,4.60
2018-01-21T09:41:11.535Z,4.60
2018-01-21T09:43:39.895Z,4.70
2018-01-21T09:46:08.531Z,4.80
2018-01-21T09:48:37.826Z,4.80
2018-01-21T09:51:06.150Z,4.80
2018-01-21T09:53:34.507Z,4.80
2018-01-21T09:56:02.884Z,4.90
2018-01-21T09:58:32.024Z,5.00
2018-01-21T10:01:00.555Z,5.00
2018-01-21T10:03:29.713Z,5.00
2018-01-21T10:05:58.120Z,5.00
2018-01-21T10:08:27.331Z,5.00
2018-01-21T10:10:56.571Z,5.00
2018-01-21T10:13:25.064Z,5.00
2018-01-21T10:15:53.568Z,4.90
2018-01-21T10:18:23.633Z,4.90
2018-01-21T10:20:52.003Z,4.90
2018-01-21T10:23:20.496Z,5.00
2018-01-21T10:25:48.841Z,5.10
2018-01-21T10:28:18.125Z,5.30
2018-01-21T10:30:47.248Z,5.40
2018-01-21T10:33:15.907Z,5.40
2018-01-21T10:35:45.179Z,5.40
2018-01-21T10:38:14.204Z,5.40
2018-01-21T10:40:43.359Z,5.60
2018-01-21T10:43:11.719Z,5.60
2018-01-21T10:45:40.191Z,5.70
2018-01-21T10:48:08.352Z,5.70
2018-01-21T10:50:36.732Z,5.70
2018-01-21T10:53:05.089Z,5.70
2018-01-21T10:55:34.212Z,5.70
2018-01-21T10:58:02.644Z,5.60
2018-01-21T11:00:37.961Z,5.60
2018-01-21T11:03:06.360Z,5.60
2018-01-21T11:05:34.832Z,5.70
2018-01-21T11:08:03.301Z,5.80
2018-01-21T11:10:31.654Z,6.00
2018-01-21T11:13:00.004Z,6.10
2018-01-21T11:15:29.010Z,6.20
2018-01-21T11:17:57.404Z,6.20
2018-01-21T11:20:25.754Z,6.10
2018-01-21T11:22:54.881Z,6.00
2018-01-21T11:25:23.233Z,6.00
2018-01-21T11:27:51.622Z,6.00
2018-01-21T11:30:19.981Z,6.00
2018-01-21T11:32:49.130Z,6.00
2018-01-21T11:35:17.493Z,6.00
2018-01-21T11:37:45.871Z,6.10
2018-01-21T11:40:14.306Z,6.10
2018-01-21T11:42:43.718Z,6.10
2018-01-21T11:45:12.660Z,6.10
2018-01-21T11:47:41.040Z,6.10
2018-01-21T11:50:09.398Z,6.10
2018-01-21T11:52:37.779Z,6.10
2018-01-21T11:55:06.189Z,6.10
2018-01-21T11:57:34.530Z,6.00
2018-01-21T12:00:02.896Z,5.90
2018-01-21T12:02:31.290Z,5.80
2018-01-21T12:04:59.662Z,5.70
2018-01-21T12:07:27.999Z,5.70
2018-01-21T12:09:56.941Z,5.80
2018-01-21T12:12:25.283Z,5.80
2018-01-21T12:14:53.641Z,5.80
2018-01-21T12:17:22.793Z,6.10
2018-01-21T12:19:51.147Z,6.10
2018-01-21T12:22:19.554Z,6.20
2018-01-21T12:24:47.914Z,6.30
2018-01-21T12:27:16.345Z,6.40
2018-01-21T12:29:45.451Z,6.20
2018-01-21T12:32:14.634Z,6.10
2018-01-21T12:34:43.780Z,6.10
2018-01-21T12:37:12.309Z,6.10
2018-01-21T12:39:41.240Z,6.10
2018-01-21T12:42:09.586Z,6.10
2018-01-21T12:44:38.700Z,6.40
2018-01-21T12:47:07.049Z,6.40
2018-01-21T12:49:35.418Z,6.50
2018-01-21T12:52:03.770Z,6.60
2018-01-21T12:54:33.059Z,6.60
2018-01-21T12:57:01.777Z,6.60
2018-01-21T12:59:30.156Z,6.60
2018-01-21T13:01:58.729Z,6.60
2018-01-21T13:04:27.244Z,6.50
2018-01-21T13:06:56.380Z,6.20
2018-01-21T13:09:24.806Z,6.30
2018-01-21T13:11:53.156Z,6.20
2018-01-21T13:14:21.499Z,6.10
2018-01-21T13:16:49.855Z,6.20
2018-01-21T13:19:18.438Z,6.30
2018-01-21T13:21:47.771Z,6.50
2018-01-21T13:24:16.363Z,6.50
2018-01-21T13:26:44.721Z,6.60
2018-01-21T13:29:13.070Z,6.70
2018-01-21T13:31:42.225Z,6.70
2018-01-21T13:34:10.785Z,6.70
2018-01-21T13:36:39.471Z,6.70
2018-01-21T13:39:07.865Z,6.70
2018-01-21T13:41:36.629Z,6.70
2018-01-21T13:44:04.993Z,6.70
2018-01-21T13:46:34.204Z,6.60
2018-01-21T13:49:02.555Z,6.60
2018-01-21T13:51:31.715Z,6.60
2018-01-21T13:54:00.251Z,6.60
2018-01-21T13:56:28.952Z,6.70
2018-01-21T13:58:57.324Z,6.60
2018-01-21T14:01:25.719Z,6.60
2018-01-21T14:03:54.101Z,6.60
2018-01-21T14:06:22.516Z,6.60
2018-01-21T14:08:50.914Z,6.60
2018-01-21T14:11:20.046Z,6.60
2018-01-21T14:13:48.622Z,6.60
2018-01-21T14:16:16.969Z,6.60
2018-01-21T14:18:46.125Z,6.60
2018-01-21T14:21:14.489Z,6.60
2018-01-21T14:23:42.906Z,6.60
2018-01-21T14:26:11.512Z,6.60
2018-01-21T14:28:40.635Z,6.50
2018-01-21T14:31:09.110Z,6.50
2018-01-21T14:33:38.406Z,6.40
2018-01-21T14:36:06.767Z,6.40
2018-01-21T14:38:34.935Z,6.40
2018-01-21T14:41:03.540Z,6.40
2018-01-21T14:43:31.928Z,6.40
2018-01-21T14:46:00.293Z,6.40
2018-01-21T14:48:28.883Z,6.40
2018-01-21T14:50:57.303Z,6.40
2018-01-21T14:53:25.716Z,6.50
2018-01-21T14:55:54.281Z,6.50
2018-01-21T14:58:23.414Z,6.50
2018-01-21T15:00:51.953Z,6.50
2018-01-21T15:03:26.346Z,6.40
2018-01-21T15:05:54.729Z,6.40
2018-01-21T15:08:23.108Z,6.50
2018-01-21T15:10:51.550Z,6.40
2018-01-21T15:13:20.507Z,6.40
2018-01-21T15:15:49.666Z,6.50
2018-01-21T15:18:18.045Z,6.50
2018-01-21T15:20:46.404Z,6.50
2018-01-21T15:23:14.974Z,6.40
2018-01-21T15:25:43.582Z,6.30
2018-01-21T15:28:11.957Z,6.20
2018-01-21T15:30:40.344Z,6.20
2018-01-21T15:33:08.545Z,6.10
2018-01-21T15:35:36.929Z,6.10
2018-01-21T15:38:06.816Z,6.10
2018-01-21T15:40:35.174Z,6.10
2018-01-21T15:43:03.577Z,5.90
2018-01-21T15:45:32.138Z,5.90
2018-01-21T15:48:02.261Z,5.90
2018-01-21T15:50:30.646Z,5.90
2018-01-21T15:52:59.016Z,5.90
2018-01-21T15:55:27.401Z,6.00
2018-01-21T15:57:55.798Z,5.90
2018-01-21T16:00:24.945Z,5.80
2018-01-21T16:02:53.321Z,5.80
2018-01-21T16:05:21.722Z,5.80
2018-01-21T16:07:50.134Z,5.70
2018-01-21T16:10:18.577Z,5.70
2018-01-21T16:12:46.923Z,5.60
2018-01-21T16:15:15.300Z,5.70
2018-01-21T16:17:43.662Z,5.60
2018-01-21T16:20:12.772Z,5.60
2018-01-21T16:22:41.933Z,5.50
2018-01-21T16:25:10.343Z,5.50
2018-01-21T16:27:38.746Z,5.50
2018-01-21T16:30:07.133Z,5.50
2018-01-21T16:32:35.631Z,5.50
2018-01-21T16:35:04.073Z,5.40
2018-01-21T16:37:43.674Z,5.40
2018-01-21T16:40:12.057Z,5.30
2018-01-21T16:42:40.431Z,5.30
2018-01-21T16:45:09.053Z,5.30
2018-01-21T16:47:37.405Z,5.20
2018-01-21T16:50:06.705Z,5.10
2018-01-21T16:52:35.223Z,5.10
2018-01-21T16:55:03.657Z,5.20
2018-01-21T16:57:33.095Z,5.20
2018-01-21T17:00:01.496Z,5.20
2018-01-21T17:02:29.992Z,5.10
2018-01-21T17:04:58.494Z,5.10
2018-01-21T17:07:26.888Z,5.00
2018-01-21T17:09:56.240Z,5.00
2018-01-21T17:12:24.639Z,5.00
2018-01-21T17:14:53.262Z,5.00
2018-01-21T17:17:21.708Z,5.10
2018-01-21T17:19:50.087Z,5.20
2018-01-21T17:22:18.436Z,5.20
2018-01-21T17:24:46.819Z,5.10
2018-01-21T17:27:15.204Z,5.00
2018-01-21T17:29:43.622Z,5.10
2018-01-21T17:32:12.843Z,5.20
2018-01-21T17:34:41.378Z,5.10
2018-01-21T17:37:09.945Z,5.10
2018-01-21T17:39:38.502Z,5.10
2018-01-21T17:42:07.040Z,5.00
2018-01-21T17:44:36.261Z,5.00
2018-01-21T17:47:04.962Z,5.00
2018-01-21T17:49:33.335Z,5.00
2018-01-21T17:52:02.019Z,4.90
2018-01-21T17:54:30.707Z,4.90
2018-01-21T17:56:59.126Z,4.90
2018-01-21T17:59:27.655Z,5.00
2018-01-21T18:01:55.962Z,5.00
2018-01-21T18:04:24.610Z,5.00
2018-01-21T18:06:53.011Z,4.90
2018-01-21T18:09:21.197Z,4.90
2018-01-21T18:11:50.033Z,4.90
2018-01-21T18:14:19.392Z,4.90
2018-01-21T18:16:47.761Z,4.80
2018-01-21T18:19:16.140Z,4.80
2018-01-21T18:21:44.543Z,4.80
2018-01-21T18:24:12.890Z,4.90
2018-01-21T18:26:41.424Z,4.80
2018-01-21T18:29:09.927Z,4.90
2018-01-21T18:31:38.983Z,4.90
2018-01-21T18:34:07.395Z,4.90
2018-01-21T18:36:36.386Z,4.90
2018-01-21T18:39:09.356Z,5.00
2018-01-21T18:41:37.721Z,5.00
2018-01-21T18:44:06.185Z,5.00
2018-01-21T18:46:34.861Z,4.90
2018-01-21T18:49:03.332Z,5.00
2018-01-21T18:51:32.004Z,5.00
2018-01-21T18:54:00.568Z,5.00
2018-01-21T18:56:29.116Z,5.00
2018-01-21T18:58:57.512Z,5.00
2018-01-21T19:01:26.915Z,5.00
2018-01-21T19:03:56.224Z,5.00
2018-01-21T19:06:27.197Z,5.00
2018-01-21T19:08:55.661Z,5.00
2018-01-21T19:11:24.075Z,5.00
2018-01-21T19:13:52.434Z,5.00
2018-01-21T19:16:20.906Z,5.00
2018-01-21T19:18:49.463Z,5.00
2018-01-21T19:21:18.593Z,5.00
2018-01-21T19:23:46.755Z,5.00
2018-01-21T19:26:15.349Z,5.00
2018-01-21T19:28:43.771Z,5.00
2018-01-21T19:31:12.202Z,5.00
2018-01-21T19:33:40.589Z,5.00
2018-01-21T19:36:09.001Z,5.00
2018-01-21T19:38:56.181Z,5.00
2018-01-21T19:41:28.156Z,5.00
2018-01-21T19:44:14.063Z,5.00
2018-01-21T19:46:42.481Z,5.10
2018-01-21T19:49:11.273Z,5.00
2018-01-21T19:51:39.679Z,4.90
2018-01-21T19:54:09.205Z,5.00
2018-01-21T19:56:37.733Z,5.00
2018-01-21T19:59:06.380Z,5.00
2018-01-21T20:01:34.724Z,5.00
2018-01-21T20:04:03.138Z,5.00
2018-01-21T20:06:31.378Z,5.00
2018-01-21T20:08:59.785Z,5.00
2018-01-21T20:11:28.383Z,5.00
2018-01-21T20:13:57.077Z,5.00
2018-01-21T20:16:26.252Z,5.10
2018-01-21T20:18:54.622Z,5.10
2018-01-21T20:21:23.074Z,5.10
2018-01-21T20:23:51.451Z,5.10
2018-01-21T20:26:19.863Z,5.10
2018-01-21T20:28:48.344Z,5.10
2018-01-21T20:31:16.769Z,5.10
2018-01-21T20:33:45.278Z,5.10
2018-01-21T20:36:13.660Z,5.10
2018-01-21T20:38:42.025Z,5.10
2018-01-21T20:41:10.560Z,5.10
2018-01-21T20:43:39.767Z,5.10
2018-01-21T20:46:08.918Z,5.10
2018-01-21T20:48:37.333Z,5.10
2018-01-21T20:51:20.542Z,5.10
2018-01-21T20:53:54.456Z,5.10
2018-01-21T20:56:24.052Z,5.10
2018-01-21T20:58:52.616Z,5.10
2018-01-21T21:01:21.138Z,5.10
2018-01-21T21:03:51.325Z,5.10
2018-01-21T21:06:19.883Z,5.10
2018-01-21T21:08:47.975Z,5.10
2018-01-21T21:11:16.483Z,5.10
2018-01-21T21:13:44.904Z,5.10
2018-01-21T21:16:13.320Z,5.10
2018-01-21T21:18:41.896Z,5.20
2018-01-21T21:21:10.270Z,5.20
2018-01-21T21:23:38.780Z,5.20
2018-01-21T21:26:07.320Z,5.10
2018-01-21T21:28:35.936Z,5.10
2018-01-21T21:31:04.270Z,5.20
2018-01-21T21:33:32.799Z,5.10
2018-01-21T21:36:03.640Z,5.10
2018-01-21T21:38:32.046Z,5.10
2018-01-21T21:41:01.188Z,5.10
2018-01-21T21:43:29.569Z,5.10
2018-01-21T21:45:58.002Z,5.10
2018-01-21T21:48:27.137Z,5.10
2018-01-21T21:50:55.511Z,5.10
2018-01-21T21:53:24.005Z,5.10
2018-01-21T21:55:53.145Z,5.00
2018-01-21T21:58:22.744Z,5.10
2018-01-21T22:00:52.093Z,5.10
2018-01-21T22:03:20.490Z,5.10
2018-01-21T22:05:48.860Z,5.10
2018-01-21T22:08:17.254Z,5.20
2018-01-21T22:10:45.623Z,5.20
2018-01-21T22:13:14.057Z,5.20
2018-01-21T22:15:42.616Z,5.20
2018-01-21T22:18:11.144Z,5.10
2018-01-21T22:20:39.641Z,5.10
2018-01-21T22:23:08.031Z,5.10
2018-01-21T22:25:36.415Z,5.00
2018-01-21T22:28:04.877Z,5.00
2018-01-21T22:30:33.258Z,5.00
2018-01-21T22:33:01.626Z,4.90
2018-01-21T22:35:30.002Z,4.90
2018-01-21T22:37:58.388Z,4.90
2018-01-21T22:40:26.787Z,4.70
2018-01-21T22:42:55.176Z,4.70
2018-01-21T22:45:23.581Z,4.60
2018-01-21T22:47:52.720Z,4.60
2018-01-21T22:50:21.076Z,4.50
2018-01-21T22:52:49.601Z,4.50
2018-01-21T22:55:18.013Z,4.50
2018-01-21T22:57:46.535Z,4.40
2018-01-21T23:00:15.060Z,4.30
2018-01-21T23:02:44.338Z,4.20
2018-01-21T23:05:12.841Z,4.10
2018-01-21T23:07:41.986Z,4.20
2018-01-21T23:10:10.339Z,4.20
2018-01-21T23:12:38.948Z,4.20
2018-01-21T23:15:07.314Z,4.20
2018-01-21T23:17:35.698Z,4.20
2018-01-21T23:20:04.064Z,4.20
2018-01-21T23:22:32.422Z,4.10
2018-01-21T23:25:00.835Z,4.10
2018-01-21T23:27:29.670Z,4.10
2018-01-21T23:29:58.044Z,4.00
2018-01-21T23:32:26.424Z,4.10
2018-01-21T23:34:54.998Z,4.00
2018-01-21T23:37:23.467Z,4.00
2018-01-21T23:39:51.855Z,4.00
2018-01-21T23:42:20.989Z,3.90
2018-01-21T23:44:49.345Z,3.90
2018-01-21T23:47:18.473Z,3.90
2018-01-21T23:49:46.856Z,3.90
2018-01-21T23:52:15.212Z,3.80
2018-01-21T23:54:44.236Z,3.70
2018-01-21T23:57:12.580Z,3.60
2018-01-21T23:59:41.591Z,3.70
